createdAt,value
2023-05-14T00:01:00.326Z,100953.06
2023-05-14T00:03:31.928Z,100941.59
2023-05-14T00:06:00.914Z,100956.81
2023-05-14T00:08:31.806Z,100944.78
2023-05-14T00:11:03.225Z,100943.06
2023-05-14T00:16:33.161Z,100941.28
2023-05-14T00:19:32.526Z,100934.72
2023-05-14T00:22:03.631Z,100937.41
2023-05-14T00:24:31.961Z,100939.25
2023-05-14T00:27:03.108Z,100937.22
2023-05-14T00:29:37.970Z,100936.19
2023-05-14T00:32:32.045Z,100934.34
2023-05-14T00:35:17.873Z,100928.06
2023-05-14T00:37:46.411Z,100932.81
2023-05-14T00:40:37.455Z,100925.91
2023-05-14T00:52:00.812Z,100927.28
2023-05-14T00:54:35.979Z,100925.75
2023-05-14T00:57:08.161Z,100934.72
2023-05-14T00:59:36.858Z,100925.44
2023-05-14T01:02:05.223Z,100933.19
2023-05-14T01:04:36.193Z,100928.47
2023-05-14T01:07:38.061Z,100931.66
2023-05-14T01:10:37.063Z,100931.31
2023-05-14T01:13:40.285Z,100921.34
2023-05-14T01:23:48.826Z,100939.44
2023-05-14T01:26:37.913Z,100939.59
2023-05-14T01:29:39.074Z,100931.31
2023-05-14T01:32:24.470Z,100930.81
2023-05-14T01:34:54.657Z,100927.25
2023-05-14T01:37:41.290Z,100931.66
2023-05-14T01:46:40.638Z,100928.28
2023-05-14T01:52:42.482Z,100923.91
2023-05-14T01:55:15.321Z,100930.84
2023-05-14T01:57:44.201Z,100927.44
2023-05-14T02:00:41.949Z,100927.31
2023-05-14T02:06:10.439Z,100922.88
2023-05-14T02:08:44.235Z,100924.94
2023-05-14T02:14:40.536Z,100931.63
2023-05-14T02:17:11.656Z,100931.81
2023-05-14T02:19:43.309Z,100930.81
2023-05-14T02:22:11.635Z,100928.59
2023-05-14T02:24:42.032Z,100930.94
2023-05-14T02:27:14.272Z,100932.63
2023-05-14T02:29:43.059Z,100933.47
2023-05-14T02:35:43.677Z,100929.69
2023-05-14T02:38:12.870Z,100936.56
2023-05-14T02:40:44.255Z,100926.19
2023-05-14T02:43:14.280Z,100923.28
2023-05-14T02:45:45.730Z,100928.34
2023-05-14T02:48:14.200Z,100918.72
2023-05-14T02:50:45.683Z,100921.59
2023-05-14T02:53:13.962Z,100920.53
2023-05-14T02:55:46.019Z,100918.31
2023-05-14T02:58:14.317Z,100919.81
2023-05-14T03:00:45.909Z,100917.59
2023-05-14T03:03:15.039Z,100918.06
2023-05-14T03:05:46.950Z,100912.47
2023-05-14T03:08:15.447Z,100917.63
2023-05-14T03:10:47.226Z,100907.19
2023-05-14T03:24:46.938Z,100915.13
2023-05-14T03:27:22.365Z,100910.38
2023-05-14T03:29:51.442Z,100914.72
2023-05-14T03:32:20.198Z,100912.78
2023-05-14T03:34:48.620Z,100915.94
2023-05-14T03:37:47.274Z,100921.13
2023-05-14T03:40:48.995Z,100911.97
2023-05-14T03:43:20.330Z,100918.13
2023-05-14T03:45:53.130Z,100916.88
2023-05-14T03:48:47.839Z,100923.44
2023-05-14T03:54:33.505Z,100928.06
2023-05-14T03:57:49.283Z,100922.28
2023-05-14T04:00:25.790Z,100919.59
2023-05-14T04:02:54.542Z,100921.94
2023-05-14T04:05:23.027Z,100925.34
2023-05-14T04:07:53.363Z,100928.66
2023-05-14T04:10:26.223Z,100931.66
2023-05-14T04:12:56.032Z,100925.75
2023-05-14T04:15:50.683Z,100926.88
2023-05-14T04:18:36.413Z,100923.09
2023-05-14T04:21:49.589Z,100923.41
2023-05-14T04:24:21.086Z,100919.16
2023-05-14T04:26:51.568Z,100920.31
2023-05-14T04:29:22.743Z,100922.16
2023-05-14T04:31:54.843Z,100924.13
2023-05-14T04:34:29.063Z,100920.91
2023-05-14T04:36:57.513Z,100918.22
2023-05-14T04:39:52.749Z,100924.59
2023-05-14T04:42:21.065Z,100923.75
2023-05-14T04:44:52.247Z,100928.44
2023-05-14T04:47:44.930Z,100924.19
2023-05-14T04:50:37.340Z,100921.50
2023-05-14T04:53:07.823Z,100921.81
2023-05-14T04:55:52.826Z,100918.97
2023-05-14T04:58:24.931Z,100926.31
2023-05-14T05:00:53.766Z,100925.78
2023-05-14T05:03:24.599Z,100927.06
2023-05-14T05:05:55.961Z,100931.88
2023-05-14T05:08:24.311Z,100923.41
2023-05-14T05:10:54.847Z,100928.63
2023-05-14T05:13:25.993Z,100930.78
2023-05-14T05:16:26.445Z,100935.06
2023-05-14T05:18:54.941Z,100941.31
2023-05-14T05:21:28.223Z,100933.13
2023-05-14T05:23:56.811Z,100932.84
2023-05-14T05:26:30.092Z,100935.81
2023-05-14T05:28:58.405Z,100933.41
2023-05-14T05:31:26.920Z,100936.53
2023-05-14T05:33:55.217Z,100929.75
2023-05-14T05:36:26.067Z,100924.97
2023-05-14T05:38:54.953Z,100923.53
2023-05-14T05:41:27.401Z,100926.66
2023-05-14T05:43:56.759Z,100926.81
2023-05-14T05:46:25.151Z,100923.38
2023-05-14T05:48:56.412Z,100916.59
2023-05-14T05:51:28.155Z,100907.16
2023-05-14T05:53:56.748Z,100914.91
2023-05-14T05:56:28.151Z,100903.84
2023-05-14T05:58:56.413Z,100913.34
2023-05-14T06:01:24.920Z,100913.88
2023-05-14T06:03:58.402Z,100911.78
2023-05-14T06:06:27.923Z,100912.63
2023-05-14T06:08:56.172Z,100907.66
2023-05-14T06:11:27.523Z,100908.06
2023-05-14T06:13:58.684Z,100911.44
2023-05-14T06:16:28.886Z,100910.56
2023-05-14T06:19:00.060Z,100908.31
2023-05-14T06:21:28.363Z,100914.66
2023-05-14T06:23:57.103Z,100915.75
2023-05-14T06:26:28.337Z,100909.84
2023-05-14T06:28:59.052Z,100907.28
2023-05-14T06:31:27.437Z,100910.41
2023-05-14T06:33:58.617Z,100915.16
2023-05-14T06:36:28.816Z,100913.31
2023-05-14T06:38:57.232Z,100924.31
2023-05-14T06:41:42.182Z,100918.06
2023-05-14T06:44:10.475Z,100910.31
2023-05-14T06:46:45.660Z,100905.91
2023-05-14T06:49:17.377Z,100904.38
2023-05-14T06:52:00.066Z,100899.84
2023-05-14T06:54:28.353Z,100902.53
2023-05-14T06:56:59.509Z,100905.22
2023-05-14T06:59:30.366Z,100895.84
2023-05-14T07:02:02.237Z,100890.75
2023-05-14T07:04:30.593Z,100893.97
2023-05-14T07:07:01.432Z,100897.06
2023-05-14T07:09:29.894Z,100891.09
2023-05-14T07:12:00.751Z,100890.41
2023-05-14T07:14:29.761Z,100901.53
2023-05-14T07:17:01.867Z,100889.50
2023-05-14T07:19:33.452Z,100892.69
2023-05-14T07:22:02.150Z,100898.59
2023-05-14T07:24:33.653Z,100892.19
2023-05-14T07:27:02.740Z,100891.75
2023-05-14T07:29:31.690Z,100894.44
2023-05-14T07:32:03.214Z,100894.31
2023-05-14T07:34:31.483Z,100895.28
2023-05-14T07:37:02.792Z,100895.53
2023-05-14T07:39:31.343Z,100889.28
2023-05-14T07:41:59.993Z,100891.47
2023-05-14T07:44:31.777Z,100887.81
2023-05-14T07:47:05.090Z,100894.28
2023-05-14T07:49:33.417Z,100886.78
2023-05-14T07:52:01.781Z,100877.91
2023-05-14T07:54:32.481Z,100876.19
2023-05-14T07:57:03.774Z,100875.84
2023-05-14T07:59:32.172Z,100875.75
2023-05-14T08:02:03.741Z,100871.50
2023-05-14T08:04:32.280Z,100866.28
2023-05-14T08:07:04.300Z,100867.38
2023-05-14T08:09:33.509Z,100864.84
2023-05-14T08:12:04.808Z,100868.50
2023-05-14T08:14:34.089Z,100859.13
2023-05-14T08:17:05.883Z,100864.88
2023-05-14T08:19:34.612Z,100865.00
2023-05-14T08:22:05.903Z,100851.75
2023-05-14T08:24:33.870Z,100848.88
2023-05-14T08:27:05.271Z,100857.41
2023-05-14T08:29:36.989Z,100856.81
2023-05-14T08:32:19.322Z,100854.50
2023-05-14T08:34:50.850Z,100853.44
2023-05-14T08:37:28.648Z,100852.13
2023-05-14T08:40:05.420Z,100850.44
2023-05-14T08:42:34.049Z,100845.34
2023-05-14T08:45:10.464Z,100848.97
2023-05-14T08:47:39.167Z,100845.09
2023-05-14T08:50:09.082Z,100845.34
2023-05-14T08:52:37.428Z,100842.94
2023-05-14T08:55:07.727Z,100839.50
2023-05-14T08:57:36.670Z,100834.53
2023-05-14T09:00:09.543Z,100831.28
2023-05-14T09:02:38.604Z,100829.81
2023-05-14T09:05:10.798Z,100827.41
2023-05-14T09:07:44.909Z,100823.03
2023-05-14T09:10:16.278Z,100827.91
2023-05-14T09:12:47.057Z,100822.69
2023-05-14T09:15:15.507Z,100829.72
2023-05-14T09:17:46.766Z,100820.00
2023-05-14T09:20:15.939Z,100818.66
2023-05-14T09:22:47.624Z,100825.06
2023-05-14T09:25:15.936Z,100828.84
2023-05-14T09:27:50.710Z,100824.84
2023-05-14T09:30:20.085Z,100824.94
2023-05-14T09:32:51.488Z,100829.34
2023-05-14T09:35:26.571Z,100825.56
2023-05-14T09:37:56.483Z,100832.59
2023-05-14T09:40:28.570Z,100827.50
2023-05-14T09:42:59.668Z,100831.25
2023-05-14T09:45:31.193Z,100828.72
2023-05-14T09:48:03.067Z,100828.97
2023-05-14T09:50:31.561Z,100830.16
2023-05-14T09:53:04.688Z,100835.75
2023-05-14T09:55:33.413Z,100831.28
2023-05-14T09:58:04.465Z,100832.13
2023-05-14T10:00:39.174Z,100835.38
2023-05-14T10:03:08.924Z,100831.88
2023-05-14T10:05:38.275Z,100832.97
2023-05-14T10:08:16.117Z,100827.88
2023-05-14T10:10:44.638Z,100839.53
2023-05-14T10:13:18.760Z,100830.78
2023-05-14T10:16:23.614Z,100837.31
2023-05-14T10:21:22.846Z,100839.88
2023-05-14T10:23:54.658Z,100832.00
2023-05-14T10:26:24.162Z,100832.59
2023-05-14T10:28:56.826Z,100839.78
2023-05-14T10:31:48.606Z,100838.06
2023-05-14T10:34:39.402Z,100839.88
2023-05-14T10:37:31.786Z,100842.78
2023-05-14T10:40:03.081Z,100852.97
2023-05-14T10:42:36.771Z,100852.59
2023-05-14T10:45:16.125Z,100854.28
2023-05-14T10:47:47.895Z,100859.63
2023-05-14T10:50:17.221Z,100861.09
2023-05-14T10:52:47.178Z,100866.31
2023-05-14T10:55:17.895Z,100862.31
2023-05-14T10:57:52.231Z,100862.41
2023-05-14T11:00:22.383Z,100860.72
2023-05-14T11:02:56.718Z,100858.28
2023-05-14T11:05:28.726Z,100858.41
2023-05-14T11:08:03.260Z,100854.03
2023-05-14T11:10:32.843Z,100856.22
2023-05-14T11:13:04.587Z,100861.03
2023-05-14T11:15:34.410Z,100859.69
2023-05-14T11:18:06.553Z,100853.00
2023-05-14T11:20:40.610Z,100856.13
2023-05-14T11:23:09.775Z,100856.72
2023-05-14T11:25:38.480Z,100865.78
2023-05-14T11:28:09.834Z,100857.91
2023-05-14T11:30:40.616Z,100855.59
2023-05-14T11:33:09.106Z,100855.47
2023-05-14T11:35:37.912Z,100850.00
2023-05-14T11:38:07.974Z,100848.72
2023-05-14T11:40:37.427Z,100843.25
2023-05-14T11:43:06.210Z,100849.53
2023-05-14T11:45:37.376Z,100837.41
2023-05-14T11:48:15.872Z,100830.75
2023-05-14T11:50:51.843Z,100828.47
2023-05-14T11:53:31.740Z,100836.59
2023-05-14T11:56:04.104Z,100838.78
2023-05-14T11:58:38.269Z,100840.78
2023-05-14T12:01:14.416Z,100841.66
2023-05-14T12:03:43.222Z,100850.63
2023-05-14T12:06:11.725Z,100848.91
2023-05-14T12:08:40.025Z,100847.22
2023-05-14T12:11:13.544Z,100845.28
2023-05-14T12:13:42.040Z,100851.56
2023-05-14T12:16:10.516Z,100853.28
2023-05-14T12:18:44.662Z,100851.47
2023-05-14T12:21:13.103Z,100853.28
2023-05-14T12:23:41.538Z,100846.34
2023-05-14T12:26:13.484Z,100841.25
2023-05-14T12:28:51.492Z,100840.53
2023-05-14T12:31:19.816Z,100845.22
2023-05-14T12:33:48.245Z,100846.28
2023-05-14T12:36:21.783Z,100851.63
2023-05-14T12:39:01.545Z,100849.84
2023-05-14T12:41:32.323Z,100852.72
2023-05-14T12:44:06.018Z,100854.53
2023-05-14T12:46:35.224Z,100852.97
2023-05-14T12:49:07.715Z,100852.31
2023-05-14T12:51:41.193Z,100839.94
2023-05-14T12:54:11.833Z,100839.09
2023-05-14T12:56:40.798Z,100839.81
2023-05-14T12:59:10.364Z,100847.63
2023-05-14T13:01:39.281Z,100858.78
2023-05-14T13:04:07.842Z,100864.84
2023-05-14T13:06:42.047Z,100867.75
2023-05-14T13:09:10.428Z,100869.56
2023-05-14T13:11:41.333Z,100879.16
2023-05-14T13:14:09.831Z,100870.19
2023-05-14T13:16:38.265Z,100880.66
2023-05-14T13:19:07.043Z,100879.78
2023-05-14T13:21:35.448Z,100890.31
2023-05-14T13:24:08.321Z,100887.78
2023-05-14T13:26:45.906Z,100889.19
2023-05-14T13:29:14.385Z,100894.34
2023-05-14T13:31:42.647Z,100895.31
2023-05-14T13:34:14.096Z,100900.28
2023-05-14T13:37:06.328Z,100900.94
2023-05-14T13:39:46.379Z,100896.38
2023-05-14T13:42:17.066Z,100900.81
2023-05-14T13:44:45.372Z,100905.56
2023-05-14T13:47:16.651Z,100914.16
2023-05-14T13:49:47.659Z,100918.56
2023-05-14T13:52:16.028Z,100926.22
2023-05-14T13:54:47.169Z,100936.53
2023-05-14T13:57:18.710Z,100940.44
2023-05-14T13:59:52.489Z,100945.56
2023-05-14T14:02:20.874Z,100948.69
2023-05-14T14:04:50.231Z,100965.16
2023-05-14T14:07:18.678Z,100969.91
2023-05-14T14:09:50.315Z,100966.00
2023-05-14T14:12:18.930Z,100976.56
2023-05-14T14:14:47.865Z,100973.19
2023-05-14T14:17:20.912Z,100980.78
2023-05-14T14:19:55.744Z,100985.41
2023-05-14T14:22:27.178Z,100998.44
2023-05-14T14:24:57.295Z,100992.94
2023-05-14T14:27:27.201Z,101002.25
2023-05-14T14:29:57.854Z,101018.38
2023-05-14T14:32:34.714Z,101017.63
2023-05-14T14:35:04.718Z,101004.50
2023-05-14T14:37:41.240Z,101017.34
2023-05-14T14:40:15.134Z,101019.66
2023-05-14T14:42:50.062Z,101014.91
2023-05-14T14:45:48.919Z,101017.97
2023-05-14T14:48:45.937Z,101023.97
2023-05-14T14:51:36.675Z,101024.81
2023-05-14T14:54:13.980Z,101023.84
2023-05-14T14:59:18.253Z,101037.09
2023-05-14T15:04:51.172Z,101044.25
2023-05-14T15:07:21.136Z,101044.34
2023-05-14T15:09:52.868Z,101038.91
2023-05-14T15:12:21.385Z,101035.06
2023-05-14T15:14:49.778Z,101035.78
2023-05-14T15:17:18.308Z,101043.19
2023-05-14T15:19:46.624Z,101035.91
2023-05-14T15:22:14.939Z,101035.56
2023-05-14T15:24:43.436Z,101039.84
2023-05-14T15:27:12.528Z,101034.28
2023-05-14T15:29:44.058Z,101043.06
2023-05-14T15:32:18.503Z,101040.28
2023-05-14T15:34:47.578Z,101047.28
2023-05-14T15:37:15.785Z,101048.91
2023-05-14T15:39:48.169Z,101057.47
2023-05-14T15:42:19.786Z,101062.25
2023-05-14T15:44:48.113Z,101061.91
2023-05-14T15:47:19.073Z,101056.69
2023-05-14T15:49:49.757Z,101071.75
2023-05-14T15:52:18.039Z,101064.34
2023-05-14T15:54:49.463Z,101068.50
2023-05-14T15:57:19.868Z,101073.38
2023-05-14T15:59:48.863Z,101073.06
2023-05-14T16:02:17.711Z,101075.09
2023-05-14T16:04:50.339Z,101068.81
2023-05-14T16:07:19.074Z,101068.03
2023-05-14T16:09:47.333Z,101074.72
2023-05-14T16:12:15.640Z,101077.06
2023-05-14T16:14:45.989Z,101078.78
2023-05-14T16:17:14.487Z,101075.16
2023-05-14T16:19:42.773Z,101084.84
2023-05-14T16:22:11.209Z,101074.16
2023-05-14T16:24:39.593Z,101063.47
2023-05-14T16:27:08.502Z,101062.41
2023-05-14T16:29:45.430Z,101066.69
2023-05-14T16:32:20.248Z,101073.28
2023-05-14T16:34:52.684Z,101068.31
2023-05-14T16:37:21.468Z,101087.53
2023-05-14T16:39:50.951Z,101089.63
2023-05-14T16:42:22.127Z,101084.91
2023-05-14T16:44:50.466Z,101087.00
2023-05-14T16:47:23.082Z,101089.72
2023-05-14T16:52:22.061Z,101101.09
2023-05-14T16:54:55.380Z,101104.03
2023-05-14T16:57:23.874Z,101120.69
2023-05-14T17:00:22.893Z,101117.66
2023-05-14T17:02:53.458Z,101102.72
2023-05-14T17:05:22.320Z,101108.34
2023-05-14T17:07:53.887Z,101116.13
2023-05-14T17:10:22.186Z,101114.56
2023-05-14T17:12:52.097Z,101110.69
2023-05-14T17:15:23.824Z,101097.44
2023-05-14T17:17:52.406Z,101100.38
2023-05-14T17:20:50.754Z,101093.44
2023-05-14T17:23:25.985Z,101085.75
2023-05-14T17:26:50.409Z,101087.22
2023-05-14T17:29:18.701Z,101100.00
2023-05-14T17:31:53.891Z,101112.03
2023-05-14T17:34:22.401Z,101105.84
2023-05-14T17:36:54.034Z,101117.88
2023-05-14T17:39:22.374Z,101117.25
2023-05-14T17:42:21.250Z,101127.13
2023-05-14T17:45:19.689Z,101124.06
2023-05-14T17:47:50.103Z,101125.28
2023-05-14T17:50:19.434Z,101123.22
2023-05-14T17:53:08.940Z,101119.34
2023-05-14T17:55:49.008Z,101127.97
2023-05-14T17:58:24.745Z,101126.63
2023-05-14T18:00:53.150Z,101131.13
2023-05-14T18:03:23.172Z,101124.94
2023-05-14T18:05:54.603Z,101129.06
2023-05-14T18:08:23.388Z,101137.09
2023-05-14T18:10:52.879Z,101142.44
2023-05-14T18:13:21.216Z,101142.34
2023-05-14T18:15:57.238Z,101158.88
2023-05-14T18:18:25.837Z,101148.78
2023-05-14T18:20:54.554Z,101158.78
2023-05-14T18:23:22.951Z,101157.56
2023-05-14T18:25:54.126Z,101173.78
2023-05-14T18:28:23.104Z,101171.06
2023-05-14T18:30:54.397Z,101169.13
2023-05-14T18:33:25.386Z,101181.94
2023-05-14T18:35:54.366Z,101182.25
2023-05-14T18:38:23.830Z,101194.19
2023-05-14T18:40:55.081Z,101191.63
2023-05-14T18:43:27.068Z,101199.56
2023-05-14T18:45:55.444Z,101197.72
2023-05-14T18:48:24.306Z,101209.13
2023-05-14T18:50:55.127Z,101213.28
2023-05-14T18:53:24.808Z,101219.56
2023-05-14T18:55:56.889Z,101224.22
2023-05-14T18:58:25.223Z,101232.44
2023-05-14T19:00:58.663Z,101233.53
2023-05-14T19:03:27.131Z,101230.25
2023-05-14T19:05:55.708Z,101242.06
2023-05-14T19:08:24.003Z,101239.13
2023-05-14T19:10:55.328Z,101239.44
2023-05-14T19:13:26.547Z,101229.31
2023-05-14T19:15:57.730Z,101229.63
2023-05-14T19:18:25.605Z,101231.91
2023-05-14T19:20:54.019Z,101231.09
2023-05-14T19:23:24.802Z,101237.91
2023-05-14T19:25:56.103Z,101242.03
2023-05-14T19:28:27.561Z,101240.78
2023-05-14T19:30:57.947Z,101243.94
2023-05-14T19:33:26.979Z,101238.91
2023-05-14T19:35:56.705Z,101250.94
2023-05-14T19:38:28.127Z,101257.41
2023-05-14T19:40:57.871Z,101258.88
2023-05-14T19:43:26.975Z,101252.91
2023-05-14T19:45:56.866Z,101255.19
2023-05-14T19:48:28.021Z,101251.38
2023-05-14T19:50:59.642Z,101258.59
2023-05-14T19:53:30.491Z,101254.53
2023-05-14T19:55:59.354Z,101260.81
2023-05-14T19:58:27.890Z,101265.78
2023-05-14T20:00:59.452Z,101264.44
2023-05-14T20:03:27.985Z,101266.16
2023-05-14T20:05:57.138Z,101253.72
2023-05-14T20:08:29.805Z,101267.84
2023-05-14T20:10:58.198Z,101265.03
2023-05-14T20:13:28.802Z,101259.22
2023-05-14T20:15:57.188Z,101261.41
2023-05-14T20:18:28.585Z,101251.91
2023-05-14T20:21:00.081Z,101259.31
2023-05-14T20:23:28.953Z,101259.94
2023-05-14T20:25:57.466Z,101257.41
2023-05-14T20:28:28.730Z,101252.78
2023-05-14T20:31:01.108Z,101256.91
2023-05-14T20:33:29.996Z,101265.66
2023-05-14T20:36:00.549Z,101271.31
2023-05-14T20:38:30.207Z,101272.75
2023-05-14T20:41:24.211Z,101277.88
2023-05-14T20:43:52.508Z,101283.47
2023-05-14T20:46:30.357Z,101282.88
2023-05-14T20:49:28.854Z,101288.38
2023-05-14T20:53:45.460Z,101296.44
2023-05-14T20:55:32.086Z,101297.28
2023-05-14T20:58:01.139Z,101314.88
2023-05-14T21:00:29.411Z,101302.03
2023-05-14T21:03:01.104Z,101305.78
2023-05-14T21:05:29.806Z,101303.34
2023-05-14T21:08:00.897Z,101309.72
2023-05-14T21:10:29.390Z,101307.25
2023-05-14T21:13:00.839Z,101328.38
2023-05-14T21:15:32.179Z,101320.09
2023-05-14T21:18:00.553Z,101336.41
2023-05-14T21:20:28.813Z,101321.41
2023-05-14T21:23:20.080Z,101329.47
2023-05-14T21:26:33.694Z,101329.34
2023-05-14T21:32:32.416Z,101339.22
2023-05-14T21:35:00.781Z,101345.16
2023-05-14T21:37:32.253Z,101336.53
2023-05-14T21:43:30.579Z,101339.47
2023-05-14T21:46:00.931Z,101348.69
2023-05-14T21:48:32.310Z,101333.81
2023-05-14T21:51:02.370Z,101344.81
2023-05-14T21:53:30.614Z,101346.03
2023-05-14T21:56:01.931Z,101352.00
2023-05-14T21:58:33.917Z,101350.16
2023-05-14T22:01:02.412Z,101349.44
2023-05-14T22:03:32.519Z,101345.19
2023-05-14T22:06:03.754Z,101351.53
2023-05-14T22:08:33.036Z,101345.31
2023-05-14T22:11:31.431Z,101357.97
2023-05-14T22:14:33.093Z,101356.03
2023-05-14T22:17:35.192Z,101362.97
2023-05-14T22:24:06.333Z,101354.06
2023-05-14T22:26:53.704Z,101355.66
2023-05-14T22:29:38.263Z,101342.53
2023-05-14T22:32:32.650Z,101337.16
2023-05-14T22:35:37.604Z,101336.03
2023-05-14T22:41:19.150Z,101353.72
2023-05-14T22:44:34.152Z,101352.25
2023-05-14T22:47:34.878Z,101364.03
2023-05-14T22:55:44.266Z,101347.78
2023-05-14T23:02:35.292Z,101362.94
2023-05-14T23:05:03.756Z,101359.34
2023-05-14T23:07:34.408Z,101350.97
2023-05-14T23:10:23.329Z,101358.31
2023-05-14T23:13:32.662Z,101345.91
2023-05-14T23:16:03.791Z,101357.97
2023-05-14T23:18:35.595Z,101359.66
2023-05-14T23:21:04.072Z,101360.16
2023-05-14T23:23:37.579Z,101355.53
2023-05-14T23:26:06.150Z,101361.25
2023-05-14T23:28:34.722Z,101355.53
2023-05-14T23:31:05.455Z,101357.00
2023-05-14T23:33:37.235Z,101345.91
2023-05-14T23:36:11.395Z,101349.19
2023-05-14T23:38:40.310Z,101341.66
2023-05-14T23:47:09.712Z,101330.44
2023-05-14T23:49:38.353Z,101337.75
2023-05-14T23:52:07.037Z,101336.78
2023-05-14T23:54:41.438Z,101331.56
